sensor_id;sensor_type;location;lat;lon;timestamp;pressure;altitude;pressure_sealevel;temperature
20867;BMP280;10593;48.398;10.698;2023-01-01T00:00:25;96582.41;;;16.31
20867;BMP280;10593;48.398;10.698;2023-01-01T00:02:51;96580.72;;;16.30
20867;BMP280;10593;48.398;10.698;2023-01-01T00:05:17;96588.53;;;16.29
20867;BMP280;10593;48.398;10.698;2023-01-01T00:07:42;96592.03;;;16.28
20867;BMP280;10593;48.398;10.698;2023-01-01T00:10:10;96606.75;;;16.27
20867;BMP280;10593;48.398;10.698;2023-01-01T00:12:59;96604.22;;;16.26
20867;BMP280;10593;48.398;10.698;2023-01-01T00:15:26;96601.72;;;16.23
20867;BMP280;10593;48.398;10.698;2023-01-01T00:17:52;96618.13;;;16.23
20867;BMP280;10593;48.398;10.698;2023-01-01T00:20:18;96616.41;;;16.22
20867;BMP280;10593;48.398;10.698;2023-01-01T00:22:44;96617.31;;;16.21
20867;BMP280;10593;48.398;10.698;2023-01-01T00:25:11;96628.56;;;16.22
20867;BMP280;10593;48.398;10.698;2023-01-01T00:27:41;96626.88;;;16.21
20867;BMP280;10593;48.398;10.698;2023-01-01T00:30:09;96619.13;;;16.19
20867;BMP280;10593;48.398;10.698;2023-01-01T00:32:35;96619.13;;;16.19
20867;BMP280;10593;48.398;10.698;2023-01-01T00:35:00;96617.44;;;16.18
20867;BMP280;10593;48.398;10.698;2023-01-01T00:37:27;96616.56;;;16.18
20867;BMP280;10593;48.398;10.698;2023-01-01T00:39:53;96623.53;;;16.17
20867;BMP280;10593;48.398;10.698;2023-01-01T00:42:19;96626.13;;;16.17
20867;BMP280;10593;48.398;10.698;2023-01-01T00:44:44;96612.34;;;16.15
20867;BMP280;10593;48.398;10.698;2023-01-01T00:47:10;96623.56;;;16.16
20867;BMP280;10593;48.398;10.698;2023-01-01T00:49:36;96623.56;;;16.16
20867;BMP280;10593;48.398;10.698;2023-01-01T00:52:02;96640.88;;;16.15
20867;BMP280;10593;48.398;10.698;2023-01-01T00:54:27;96634.91;;;16.13
20867;BMP280;10593;48.398;10.698;2023-01-01T00:56:53;96632.34;;;16.12
20867;BMP280;10593;48.398;10.698;2023-01-01T00:59:20;96621.13;;;16.11
20867;BMP280;10593;48.398;10.698;2023-01-01T01:01:45;96626.31;;;16.11
20867;BMP280;10593;48.398;10.698;2023-01-01T01:04:11;96634.06;;;16.11
20867;BMP280;10593;48.398;10.698;2023-01-01T01:06:37;96636.75;;;16.10
20867;BMP280;10593;48.398;10.698;2023-01-01T01:09:03;96626.41;;;16.08
20867;BMP280;10593;48.398;10.698;2023-01-01T01:11:29;96625.63;;;16.06
20867;BMP280;10593;48.398;10.698;2023-01-01T01:13:55;96616.94;;;16.07
20867;BMP280;10593;48.398;10.698;2023-01-01T01:16:27;96624.72;;;16.07
20867;BMP280;10593;48.398;10.698;2023-01-01T01:18:56;96630.81;;;16.06
20867;BMP280;10593;48.398;10.698;2023-01-01T01:21:25;96628.25;;;16.05
20867;BMP280;10593;48.398;10.698;2023-01-01T01:23:51;96631.75;;;16.04
20867;BMP280;10593;48.398;10.698;2023-01-01T01:26:22;96623.97;;;16.04
20867;BMP280;10593;48.398;10.698;2023-01-01T01:28:49;96631.75;;;16.04
20867;BMP280;10593;48.398;10.698;2023-01-01T01:31:15;96623.16;;;16.02
20867;BMP280;10593;48.398;10.698;2023-01-01T01:33:46;96626.63;;;16.02
20867;BMP280;10593;48.398;10.698;2023-01-01T01:36:14;96625.84;;;16.00
20867;BMP280;10593;48.398;10.698;2023-01-01T01:38:40;96614.56;;;16.01
20867;BMP280;10593;48.398;10.698;2023-01-01T01:41:06;96622.41;;;15.98
20867;BMP280;10593;48.398;10.698;2023-01-01T01:46:08;96607.75;;;15.97
20867;BMP280;10593;48.398;10.698;2023-01-01T01:48:43;96614.63;;;15.98
20867;BMP280;10593;48.398;10.698;2023-01-01T01:51:13;96619.03;;;15.96
20867;BMP280;10593;48.398;10.698;2023-01-01T01:54:06;96621.63;;;15.96
20867;BMP280;10593;48.398;10.698;2023-01-01T01:59:19;96622.53;;;15.95
20867;BMP280;10593;48.398;10.698;2023-01-01T02:01:45;96624.28;;;15.95
20867;BMP280;10593;48.398;10.698;2023-01-01T02:04:11;96620.00;;;15.94
20867;BMP280;10593;48.398;10.698;2023-01-01T02:06:38;96620.88;;;15.93
20867;BMP280;10593;48.398;10.698;2023-01-01T02:09:06;96614.84;;;15.92
20867;BMP280;10593;48.398;10.698;2023-01-01T02:11:32;96614.00;;;15.92
20867;BMP280;10593;48.398;10.698;2023-01-01T02:14:00;96608.88;;;15.90
20867;BMP280;10593;48.398;10.698;2023-01-01T02:16:48;96622.72;;;15.89
20867;BMP280;10593;48.398;10.698;2023-01-01T02:29:01;96625.72;;;15.77
20867;BMP280;10593;48.398;10.698;2023-01-01T02:31:34;96626.63;;;15.76
20867;BMP280;10593;48.398;10.698;2023-01-01T02:34:07;96618.78;;;15.78
20867;BMP280;10593;48.398;10.698;2023-01-01T02:36:40;96610.16;;;15.77
20867;BMP280;10593;48.398;10.698;2023-01-01T02:39:09;96617.06;;;15.77
20867;BMP280;10593;48.398;10.698;2023-01-01T02:41:39;96608.47;;;15.76
20867;BMP280;10593;48.398;10.698;2023-01-01T02:44:06;96606.78;;;15.75
20867;BMP280;10593;48.398;10.698;2023-01-01T02:46:34;96613.66;;;15.76
20867;BMP280;10593;48.398;10.698;2023-01-01T02:49:01;96605.91;;;15.75
20867;BMP280;10593;48.398;10.698;2023-01-01T02:54:52;96614.63;;;15.72
20867;BMP280;10593;48.398;10.698;2023-01-01T02:57:40;96610.34;;;15.71
20867;BMP280;10593;48.398;10.698;2023-01-01T03:00:12;96618.13;;;15.71
20867;BMP280;10593;48.398;10.698;2023-01-01T03:03:26;96619.91;;;15.69
20867;BMP280;10593;48.398;10.698;2023-01-01T03:06:13;96620.88;;;15.67
20867;BMP280;10593;48.398;10.698;2023-01-01T03:09:17;96620.91;;;15.65
20867;BMP280;10593;48.398;10.698;2023-01-01T03:12:09;96619.22;;;15.64
20867;BMP280;10593;48.398;10.698;2023-01-01T03:14:56;96630.47;;;15.63
20867;BMP280;10593;48.398;10.698;2023-01-01T03:17:35;96630.53;;;15.62
20867;BMP280;10593;48.398;10.698;2023-01-01T03:20:12;96631.38;;;15.62
20867;BMP280;10593;48.398;10.698;2023-01-01T03:22:42;96629.69;;;15.61
20867;BMP280;10593;48.398;10.698;2023-01-01T03:25:19;96631.41;;;15.61
20867;BMP280;10593;48.398;10.698;2023-01-01T03:27:54;96627.09;;;15.61
20867;BMP280;10593;48.398;10.698;2023-01-01T03:30:23;96627.09;;;15.61
20867;BMP280;10593;48.398;10.698;2023-01-01T03:33:04;96629.69;;;15.61
20867;BMP280;10593;48.398;10.698;2023-01-01T03:35:49;96628.00;;;15.60
20867;BMP280;10593;48.398;10.698;2023-01-01T03:38:26;96630.66;;;15.57
20867;BMP280;10593;48.398;10.698;2023-01-01T03:41:04;96624.56;;;15.58
20867;BMP280;10593;48.398;10.698;2023-01-01T03:43:49;96636.69;;;15.58
20867;BMP280;10593;48.398;10.698;2023-01-01T03:46:23;96627.25;;;15.57
20867;BMP280;10593;48.398;10.698;2023-01-01T03:48:51;96632.34;;;15.58
20867;BMP280;10593;48.398;10.698;2023-01-01T03:54:57;96634.28;;;15.52
20867;BMP280;10593;48.398;10.698;2023-01-01T03:57:49;96622.28;;;15.49
20867;BMP280;10593;48.398;10.698;2023-01-01T04:00:21;96623.13;;;15.50
20867;BMP280;10593;48.398;10.698;2023-01-01T04:02:55;96624.88;;;15.49
20867;BMP280;10593;48.398;10.698;2023-01-01T04:05:22;96624.88;;;15.49
20867;BMP280;10593;48.398;10.698;2023-01-01T04:07:51;96625.78;;;15.48
20867;BMP280;10593;48.398;10.698;2023-01-01T04:10:17;96628.38;;;15.48
20867;BMP280;10593;48.398;10.698;2023-01-01T04:12:48;96626.69;;;15.47
20867;BMP280;10593;48.398;10.698;2023-01-01T04:15:18;96625.78;;;15.48
20867;BMP280;10593;48.398;10.698;2023-01-01T04:17:44;96626.69;;;15.47
20867;BMP280;10593;48.398;10.698;2023-01-01T04:20:10;96626.69;;;15.47
20867;BMP280;10593;48.398;10.698;2023-01-01T04:22:36;96630.16;;;15.46
20867;BMP280;10593;48.398;10.698;2023-01-01T04:25:03;96635.34;;;15.46
20867;BMP280;10593;48.398;10.698;2023-01-01T04:27:29;96637.94;;;15.46
20867;BMP280;10593;48.398;10.698;2023-01-01T04:29:55;96637.09;;;15.44
20867;BMP280;10593;48.398;10.698;2023-01-01T04:32:20;96649.16;;;15.45
20867;BMP280;10593;48.398;10.698;2023-01-01T04:34:46;96643.16;;;15.45
20867;BMP280;10593;48.398;10.698;2023-01-01T04:37:13;96648.34;;;15.45
20867;BMP280;10593;48.398;10.698;2023-01-01T04:39:39;96638.00;;;15.43
20867;BMP280;10593;48.398;10.698;2023-01-01T04:42:04;96648.38;;;15.43
20867;BMP280;10593;48.398;10.698;2023-01-01T04:44:30;96643.19;;;15.43
20867;BMP280;10593;48.398;10.698;2023-01-01T04:46:56;96645.84;;;15.42
20867;BMP280;10593;48.398;10.698;2023-01-01T04:49:21;96638.06;;;15.42
20867;BMP280;10593;48.398;10.698;2023-01-01T04:51:47;96641.56;;;15.41
20867;BMP280;10593;48.398;10.698;2023-01-01T04:54:13;96655.41;;;15.40
20867;BMP280;10593;48.398;10.698;2023-01-01T04:56:39;96652.81;;;15.40
20867;BMP280;10593;48.398;10.698;2023-01-01T04:59:04;96658.84;;;15.39
20867;BMP280;10593;48.398;10.698;2023-01-01T05:01:30;96661.44;;;15.39
20867;BMP280;10593;48.398;10.698;2023-01-01T05:03:58;96660.63;;;15.38
20867;BMP280;10593;48.398;10.698;2023-01-01T05:06:24;96657.22;;;15.36
20867;BMP280;10593;48.398;10.698;2023-01-01T05:08:53;96652.94;;;15.35
20867;BMP280;10593;48.398;10.698;2023-01-01T05:11:26;96659.03;;;15.34
20867;BMP280;10593;48.398;10.698;2023-01-01T05:13:55;96650.38;;;15.34
20867;BMP280;10593;48.398;10.698;2023-01-01T05:16:31;96652.16;;;15.33
20867;BMP280;10593;48.398;10.698;2023-01-01T05:18:57;96661.66;;;15.31
20867;BMP280;10593;48.398;10.698;2023-01-01T05:21:27;96666.03;;;15.31
20867;BMP280;10593;48.398;10.698;2023-01-01T05:23:55;96669.50;;;15.30
20867;BMP280;10593;48.398;10.698;2023-01-01T05:26:24;96675.50;;;15.30
20867;BMP280;10593;48.398;10.698;2023-01-01T05:28:50;96672.09;;;15.28
20867;BMP280;10593;48.398;10.698;2023-01-01T05:31:19;96668.69;;;15.28
20867;BMP280;10593;48.398;10.698;2023-01-01T05:33:46;96679.06;;;15.26
20867;BMP280;10593;48.398;10.698;2023-01-01T05:36:19;96671.31;;;15.25
20867;BMP280;10593;48.398;10.698;2023-01-01T05:38:46;96674.78;;;15.25
20867;BMP280;10593;48.398;10.698;2023-01-01T05:41:14;96675.66;;;15.24
20867;BMP280;10593;48.398;10.698;2023-01-01T05:43:40;96675.72;;;15.23
20867;BMP280;10593;48.398;10.698;2023-01-01T05:46:11;96677.41;;;15.24
20867;BMP280;10593;48.398;10.698;2023-01-01T05:48:37;96672.31;;;15.21
20867;BMP280;10593;48.398;10.698;2023-01-01T05:51:05;96677.50;;;15.21
20867;BMP280;10593;48.398;10.698;2023-01-01T05:53:31;96677.56;;;15.19
20867;BMP280;10593;48.398;10.698;2023-01-01T05:55:58;96683.56;;;15.20
20867;BMP280;10593;48.398;10.698;2023-01-01T05:58:26;96691.38;;;15.18
20867;BMP280;10593;48.398;10.698;2023-01-01T06:00:52;96693.97;;;15.18
20867;BMP280;10593;48.398;10.698;2023-01-01T06:03:18;96704.31;;;15.18
20867;BMP280;10593;48.398;10.698;2023-01-01T06:05:44;96695.75;;;15.16
20867;BMP280;10593;48.398;10.698;2023-01-01T06:08:11;96705.28;;;15.16
20867;BMP280;10593;48.398;10.698;2023-01-01T06:10:36;96703.50;;;15.16
20867;BMP280;10593;48.398;10.698;2023-01-01T06:13:02;96701.81;;;15.15
20867;BMP280;10593;48.398;10.698;2023-01-01T06:15:28;96707.00;;;15.15
20867;BMP280;10593;48.398;10.698;2023-01-01T06:17:53;96710.47;;;15.14
20867;BMP280;10593;48.398;10.698;2023-01-01T06:20:19;96715.66;;;15.14
20867;BMP280;10593;48.398;10.698;2023-01-01T06:22:45;96720.84;;;15.14
20867;BMP280;10593;48.398;10.698;2023-01-01T06:25:12;96715.66;;;15.14
20867;BMP280;10593;48.398;10.698;2023-01-01T06:27:38;96722.63;;;15.12
20867;BMP280;10593;48.398;10.698;2023-01-01T06:30:06;96720.84;;;15.14
20867;BMP280;10593;48.398;10.698;2023-01-01T06:32:32;96726.91;;;15.13
20867;BMP280;10593;48.398;10.698;2023-01-01T06:34:58;96708.78;;;15.13
20867;BMP280;10593;48.398;10.698;2023-01-01T06:37:24;96723.47;;;15.13
20867;BMP280;10593;48.398;10.698;2023-01-01T06:39:50;96727.75;;;15.14
20867;BMP280;10593;48.398;10.698;2023-01-01T06:42:15;96739.84;;;15.13
20867;BMP280;10593;48.398;10.698;2023-01-01T06:44:41;96730.34;;;15.14
20867;BMP280;10593;48.398;10.698;2023-01-01T06:47:07;96740.75;;;15.12
20867;BMP280;10593;48.398;10.698;2023-01-01T06:49:32;96739.00;;;15.13
20867;BMP280;10593;48.398;10.698;2023-01-01T06:51:58;96750.19;;;15.13
20867;BMP280;10593;48.398;10.698;2023-01-01T06:54:24;96739.94;;;15.10
20867;BMP280;10593;48.398;10.698;2023-01-01T06:56:49;96740.84;;;15.09
20867;BMP280;10593;48.398;10.698;2023-01-01T06:59:16;96740.03;;;15.07
20867;BMP280;10593;48.398;10.698;2023-01-01T07:01:42;96748.63;;;15.08
20867;BMP280;10593;48.398;10.698;2023-01-01T07:04:14;96745.19;;;15.07
20867;BMP280;10593;48.398;10.698;2023-01-01T07:06:40;96750.41;;;15.06
20867;BMP280;10593;48.398;10.698;2023-01-01T07:09:07;96752.19;;;15.04
20867;BMP280;10593;48.398;10.698;2023-01-01T07:11:34;96761.69;;;15.03
20867;BMP280;10593;48.398;10.698;2023-01-01T07:14:00;96755.69;;;15.03
20867;BMP280;10593;48.398;10.698;2023-01-01T07:16:26;96764.28;;;15.03
20867;BMP280;10593;48.398;10.698;2023-01-01T07:18:52;96757.41;;;15.02
20867;BMP280;10593;48.398;10.698;2023-01-01T07:21:51;96764.34;;;15.02
20867;BMP280;10593;48.398;10.698;2023-01-01T07:24:17;96771.31;;;14.98
20867;BMP280;10593;48.398;10.698;2023-01-01T07:26:44;96777.38;;;14.99
20867;BMP280;10593;48.398;10.698;2023-01-01T07:29:10;96783.38;;;14.99
20867;BMP280;10593;48.398;10.698;2023-01-01T07:31:39;96788.53;;;14.99
20867;BMP280;10593;48.398;10.698;2023-01-01T07:34:12;96798.06;;;14.99
20867;BMP280;10593;48.398;10.698;2023-01-01T07:36:38;96803.25;;;14.99
20867;BMP280;10593;48.398;10.698;2023-01-01T07:39:03;96797.19;;;14.98
20867;BMP280;10593;48.398;10.698;2023-01-01T07:41:29;96800.69;;;14.97
20867;BMP280;10593;48.398;10.698;2023-01-01T07:43:55;96795.50;;;14.97
20867;BMP280;10593;48.398;10.698;2023-01-01T07:46:20;96802.38;;;14.98
20867;BMP280;10593;48.398;10.698;2023-01-01T07:48:46;96811.03;;;14.97
20867;BMP280;10593;48.398;10.698;2023-01-01T07:51:12;96813.59;;;14.99
20867;BMP280;10593;48.398;10.698;2023-01-01T07:53:38;96815.31;;;14.98
20867;BMP280;10593;48.398;10.698;2023-01-01T07:56:04;96813.59;;;14.99
20867;BMP280;10593;48.398;10.698;2023-01-01T07:58:30;96807.56;;;14.98
20867;BMP280;10593;48.398;10.698;2023-01-01T08:00:55;96812.69;;;15.00
20867;BMP280;10593;48.398;10.698;2023-01-01T08:03:21;96817.03;;;14.99
20867;BMP280;10593;48.398;10.698;2023-01-01T08:05:46;96818.78;;;14.99
20867;BMP280;10593;48.398;10.698;2023-01-01T08:08:13;96821.31;;;15.00
20867;BMP280;10593;48.398;10.698;2023-01-01T08:10:38;96826.47;;;15.00
20867;BMP280;10593;48.398;10.698;2023-01-01T08:13:07;96824.69;;;15.02
20867;BMP280;10593;48.398;10.698;2023-01-01T08:15:33;96829.06;;;15.00
20867;BMP280;10593;48.398;10.698;2023-01-01T08:18:03;96833.31;;;15.03
20867;BMP280;10593;48.398;10.698;2023-01-01T08:20:30;96828.16;;;15.03
20867;BMP280;10593;48.398;10.698;2023-01-01T08:22:56;96837.59;;;15.04
20867;BMP280;10593;48.398;10.698;2023-01-01T08:25:22;96828.09;;;15.04
20867;BMP280;10593;48.398;10.698;2023-01-01T08:27:48;96829.78;;;15.05
20867;BMP280;10593;48.398;10.698;2023-01-01T08:30:15;96838.38;;;15.07
20867;BMP280;10593;48.398;10.698;2023-01-01T08:32:41;96835.81;;;15.07
20867;BMP280;10593;48.398;10.698;2023-01-01T08:35:08;96836.59;;;15.09
20867;BMP280;10593;48.398;10.698;2023-01-01T08:37:34;96830.53;;;15.10
20867;BMP280;10593;48.398;10.698;2023-01-01T08:39:59;96836.53;;;15.12
20867;BMP280;10593;48.398;10.698;2023-01-01T08:42:25;96828.72;;;15.14
20867;BMP280;10593;48.398;10.698;2023-01-01T08:44:50;96832.94;;;15.16
20867;BMP280;10593;48.398;10.698;2023-01-01T08:47:26;96830.34;;;15.18
20867;BMP280;10593;48.398;10.698;2023-01-01T08:49:52;96826.84;;;15.19
20867;BMP280;10593;48.398;10.698;2023-01-01T08:52:18;96826.81;;;15.20
20867;BMP280;10593;48.398;10.698;2023-01-01T08:54:44;96832.81;;;15.22
20867;BMP280;10593;48.398;10.698;2023-01-01T08:57:10;96825.84;;;15.24
20867;BMP280;10593;48.398;10.698;2023-01-01T08:59:36;96817.19;;;15.25
20867;BMP280;10593;48.398;10.698;2023-01-01T09:02:03;96814.50;;;15.28
20867;BMP280;10593;48.398;10.698;2023-01-01T09:04:29;96830.88;;;15.30
20867;BMP280;10593;48.398;10.698;2023-01-01T09:06:55;96844.69;;;15.31
20867;BMP280;10593;48.398;10.698;2023-01-01T09:09:20;96838.59;;;15.33
20867;BMP280;10593;48.398;10.698;2023-01-01T09:11:56;96835.91;;;15.36
20867;BMP280;10593;48.398;10.698;2023-01-01T09:14:23;96838.50;;;15.36
20867;BMP280;10593;48.398;10.698;2023-01-01T09:16:49;96840.13;;;15.39
20867;BMP280;10593;48.398;10.698;2023-01-01T09:19:15;96834.91;;;15.42
20867;BMP280;10593;48.398;10.698;2023-01-01T09:21:43;96828.75;;;15.44
20867;BMP280;10593;48.398;10.698;2023-01-01T09:24:09;96823.53;;;15.47
20867;BMP280;10593;48.398;10.698;2023-01-01T09:26:35;96828.63;;;15.50
20867;BMP280;10593;48.398;10.698;2023-01-01T09:29:01;96837.16;;;15.54
20867;BMP280;10593;48.398;10.698;2023-01-01T09:31:26;96833.59;;;15.56
20867;BMP280;10593;48.398;10.698;2023-01-01T09:33:52;96838.72;;;15.59
20867;BMP280;10593;48.398;10.698;2023-01-01T09:38:51;96835.94;;;15.67
20867;BMP280;10593;48.398;10.698;2023-01-01T09:44:57;96846.13;;;15.71
20867;BMP280;10593;48.398;10.698;2023-01-01T09:47:41;96838.31;;;15.74
20867;BMP280;10593;48.398;10.698;2023-01-01T09:50:19;96839.03;;;15.78
20867;BMP280;10593;48.398;10.698;2023-01-01T09:52:57;96844.09;;;15.82
20867;BMP280;10593;48.398;10.698;2023-01-01T09:55:37;96844.00;;;15.85
20867;BMP280;10593;48.398;10.698;2023-01-01T09:58:09;96849.13;;;15.88
20867;BMP280;10593;48.398;10.698;2023-01-01T10:00:42;96842.94;;;15.92
20867;BMP280;10593;48.398;10.698;2023-01-01T10:03:26;96841.97;;;15.96
20867;BMP280;10593;48.398;10.698;2023-01-01T10:06:14;96832.38;;;15.98
20867;BMP280;10593;48.398;10.698;2023-01-01T10:15:18;96813.97;;;16.07
20867;BMP280;10593;48.398;10.698;2023-01-01T10:17:48;96821.66;;;16.10
20867;BMP280;10593;48.398;10.698;2023-01-01T10:20:38;96827.59;;;16.14
20867;BMP280;10593;48.398;10.698;2023-01-01T10:23:27;96821.50;;;16.16
20867;BMP280;10593;48.398;10.698;2023-01-01T10:26:02;96811.84;;;16.20
20867;BMP280;10593;48.398;10.698;2023-01-01T10:28:44;96811.78;;;16.23
20867;BMP280;10593;48.398;10.698;2023-01-01T10:31:37;96809.88;;;16.28
20867;BMP280;10593;48.398;10.698;2023-01-01T10:34:25;96813.16;;;16.33
20867;BMP280;10593;48.398;10.698;2023-01-01T10:36:56;96808.75;;;16.38
20867;BMP280;10593;48.398;10.698;2023-01-01T10:39:23;96809.41;;;16.44
20867;BMP280;10593;48.398;10.698;2023-01-01T10:41:49;96806.59;;;16.50
20867;BMP280;10593;48.398;10.698;2023-01-01T10:44:28;96802.91;;;16.57
20867;BMP280;10593;48.398;10.698;2023-01-01T10:47:03;96800.97;;;16.64
20867;BMP280;10593;48.398;10.698;2023-01-01T10:49:52;96799.88;;;16.71
20867;BMP280;10593;48.398;10.698;2023-01-01T10:52:26;96790.13;;;16.77
20867;BMP280;10593;48.398;10.698;2023-01-01T10:54:52;96786.56;;;16.81
20867;BMP280;10593;48.398;10.698;2023-01-01T11:02:35;96776.56;;;16.95
20867;BMP280;10593;48.398;10.698;2023-01-01T11:05:20;96767.72;;;17.00
20867;BMP280;10593;48.398;10.698;2023-01-01T11:07:46;96770.13;;;17.05
20867;BMP280;10593;48.398;10.698;2023-01-01T11:10:23;96757.84;;;17.10
20867;BMP280;10593;48.398;10.698;2023-01-01T11:12:55;96749.94;;;17.13
20867;BMP280;10593;48.398;10.698;2023-01-01T11:15:40;96749.72;;;17.19
20867;BMP280;10593;48.398;10.698;2023-01-01T11:18:13;96750.41;;;17.24
20867;BMP280;10593;48.398;10.698;2023-01-01T11:20:40;96741.59;;;17.28
20867;BMP280;10593;48.398;10.698;2023-01-01T11:23:31;96737.16;;;17.31
20867;BMP280;10593;48.398;10.698;2023-01-01T11:28:40;96735.09;;;17.41
20867;BMP280;10593;48.398;10.698;2023-01-01T11:31:14;96742.66;;;17.47
20867;BMP280;10593;48.398;10.698;2023-01-01T11:33:54;96740.75;;;17.52
20867;BMP280;10593;48.398;10.698;2023-01-01T11:36:29;96743.09;;;17.58
20867;BMP280;10593;48.398;10.698;2023-01-01T11:41:51;96741.91;;;17.66
20867;BMP280;10593;48.398;10.698;2023-01-01T11:44:41;96746.94;;;17.71
20867;BMP280;10593;48.398;10.698;2023-01-01T11:47:34;96740.75;;;17.75
20867;BMP280;10593;48.398;10.698;2023-01-01T11:50:33;96739.72;;;17.79
20867;BMP280;10593;48.398;10.698;2023-01-01T11:56:17;96732.53;;;17.85
20867;BMP280;10593;48.398;10.698;2023-01-01T11:58:59;96723.78;;;17.88
20867;BMP280;10593;48.398;10.698;2023-01-01T12:01:53;96719.38;;;17.90
20867;BMP280;10593;48.398;10.698;2023-01-01T12:04:40;96718.47;;;17.91
20867;BMP280;10593;48.398;10.698;2023-01-01T12:07:42;96718.50;;;17.89
20867;BMP280;10593;48.398;10.698;2023-01-01T12:10:23;96718.47;;;17.91
20867;BMP280;10593;48.398;10.698;2023-01-01T12:13:14;96718.47;;;17.91
20867;BMP280;10593;48.398;10.698;2023-01-01T12:18:44;96715.84;;;17.91
20867;BMP280;10593;48.398;10.698;2023-01-01T12:21:41;96720.19;;;17.90
20867;BMP280;10593;48.398;10.698;2023-01-01T12:24:11;96708.97;;;17.90
20867;BMP280;10593;48.398;10.698;2023-01-01T12:27:01;96720.16;;;17.92
20867;BMP280;10593;48.398;10.698;2023-01-01T12:30:20;96716.75;;;17.90
20867;BMP280;10593;48.398;10.698;2023-01-01T12:36:41;96703.81;;;17.88
20867;BMP280;10593;48.398;10.698;2023-01-01T12:42:34;96704.59;;;17.90
20867;BMP280;10593;48.398;10.698;2023-01-01T12:45:21;96693.28;;;17.91
20867;BMP280;10593;48.398;10.698;2023-01-01T12:48:22;96700.16;;;17.92
20867;BMP280;10593;48.398;10.698;2023-01-01T12:54:32;96705.19;;;17.97
20867;BMP280;10593;48.398;10.698;2023-01-01T12:57:16;96687.00;;;17.97
20867;BMP280;10593;48.398;10.698;2023-01-01T12:59:48;96686.03;;;17.99
20867;BMP280;10593;48.398;10.698;2023-01-01T13:02:26;96685.91;;;18.02
20867;BMP280;10593;48.398;10.698;2023-01-01T13:05:04;96674.56;;;18.05
20867;BMP280;10593;48.398;10.698;2023-01-01T13:07:40;96670.97;;;18.07
20867;BMP280;10593;48.398;10.698;2023-01-01T13:10:33;96671.75;;;18.09
20867;BMP280;10593;48.398;10.698;2023-01-01T13:13:01;96670.78;;;18.12
20867;BMP280;10593;48.398;10.698;2023-01-01T13:18:25;96659.38;;;18.16
20867;BMP280;10593;48.398;10.698;2023-01-01T13:20:55;96655.75;;;18.18
20867;BMP280;10593;48.398;10.698;2023-01-01T13:34:35;96650.25;;;18.26
20867;BMP280;10593;48.398;10.698;2023-01-01T13:40:01;96656.25;;;18.28
20867;BMP280;10593;48.398;10.698;2023-01-01T13:42:45;96667.47;;;18.30
20867;BMP280;10593;48.398;10.698;2023-01-01T13:45:34;96658.75;;;18.31
20867;BMP280;10593;48.398;10.698;2023-01-01T13:50:50;96664.66;;;18.34
20867;BMP280;10593;48.398;10.698;2023-01-01T13:56:53;96663.69;;;18.37
20867;BMP280;10593;48.398;10.698;2023-01-01T14:02:52;96664.47;;;18.39
20867;BMP280;10593;48.398;10.698;2023-01-01T14:05:44;96666.06;;;18.43
20867;BMP280;10593;48.398;10.698;2023-01-01T14:08:34;96672.06;;;18.45
20867;BMP280;10593;48.398;10.698;2023-01-01T14:11:02;96671.97;;;18.46
20867;BMP280;10593;48.398;10.698;2023-01-01T14:13:39;96672.69;;;18.50
20867;BMP280;10593;48.398;10.698;2023-01-01T14:16:09;96677.75;;;18.53
20867;BMP280;10593;48.398;10.698;2023-01-01T14:18:48;96680.25;;;18.56
20867;BMP280;10593;48.398;10.698;2023-01-01T14:21:18;96688.00;;;18.57
20867;BMP280;10593;48.398;10.698;2023-01-01T14:23:49;96679.22;;;18.60
20867;BMP280;10593;48.398;10.698;2023-01-01T14:26:19;96677.38;;;18.62
20867;BMP280;10593;48.398;10.698;2023-01-01T14:28:45;96685.16;;;18.63
20867;BMP280;10593;48.398;10.698;2023-01-01T14:31:18;96684.16;;;18.66
20867;BMP280;10593;48.398;10.698;2023-01-01T14:33:45;96676.34;;;18.66
20867;BMP280;10593;48.398;10.698;2023-01-01T14:36:22;96682.28;;;18.69
20867;BMP280;10593;48.398;10.698;2023-01-01T14:38:52;96689.25;;;18.69
20867;BMP280;10593;48.398;10.698;2023-01-01T14:41:31;96676.16;;;18.70
20867;BMP280;10593;48.398;10.698;2023-01-01T14:46:30;96681.31;;;18.72
20867;BMP280;10593;48.398;10.698;2023-01-01T14:48:59;96680.38;;;18.73
20867;BMP280;10593;48.398;10.698;2023-01-01T14:51:29;96669.97;;;18.73
20867;BMP280;10593;48.398;10.698;2023-01-01T14:54:02;96670.81;;;18.73
20867;BMP280;10593;48.398;10.698;2023-01-01T14:56:35;96669.97;;;18.73
20867;BMP280;10593;48.398;10.698;2023-01-01T14:59:22;96669.19;;;18.71
20867;BMP280;10593;48.398;10.698;2023-01-01T15:02:08;96665.81;;;18.69
20867;BMP280;10593;48.398;10.698;2023-01-01T15:04:37;96665.81;;;18.69
20867;BMP280;10593;48.398;10.698;2023-01-01T15:07:04;96664.91;;;18.70
20867;BMP280;10593;48.398;10.698;2023-01-01T15:09:31;96666.66;;;18.69
20867;BMP280;10593;48.398;10.698;2023-01-01T15:11:58;96666.69;;;18.68
20867;BMP280;10593;48.398;10.698;2023-01-01T15:14:47;96666.69;;;18.68
20867;BMP280;10593;48.398;10.698;2023-01-01T15:17:19;96671.91;;;18.68
20867;BMP280;10593;48.398;10.698;2023-01-01T15:20:18;96676.28;;;18.67
20867;BMP280;10593;48.398;10.698;2023-01-01T15:22:45;96669.38;;;18.66
20867;BMP280;10593;48.398;10.698;2023-01-01T15:25:16;96672.91;;;18.65
20867;BMP280;10593;48.398;10.698;2023-01-01T15:27:52;96670.22;;;18.67
20867;BMP280;10593;48.398;10.698;2023-01-01T15:30:24;96664.19;;;18.66
20867;BMP280;10593;48.398;10.698;2023-01-01T15:32:50;96672.03;;;18.65
20867;BMP280;10593;48.398;10.698;2023-01-01T15:35:28;96660.81;;;18.64
20867;BMP280;10593;48.398;10.698;2023-01-01T15:38:01;96657.28;;;18.65
20867;BMP280;10593;48.398;10.698;2023-01-01T15:40:32;96661.63;;;18.65
20867;BMP280;10593;48.398;10.698;2023-01-01T15:47:55;96656.56;;;18.62
20867;BMP280;10593;48.398;10.698;2023-01-01T15:50:28;96661.78;;;18.62
20867;BMP280;10593;48.398;10.698;2023-01-01T15:53:00;96659.31;;;18.59
20867;BMP280;10593;48.398;10.698;2023-01-01T15:55:30;96655.00;;;18.58
20867;BMP280;10593;48.398;10.698;2023-01-01T15:57:58;96649.84;;;18.56